Terminal Aerodrome Forecast
Issued by NWS La Crosse, WI

Home | Current Version | Previous Version | Text Only | Print | Product List | Glossary On
Versions: 1 2 3 4 5 6 7 8 9 10 11 12 13 14 15 16 17 18 19 20 21 22 23 24 25 26
000
FTUS43 KARX 180737 AAA
TAFLSE
TAF AMD
KLSE 180737Z 1808/1906 VRB03KT P6SM SCT250
      TEMPO 1808/1812 3/4SM BR SCT004
     FM181300 07007KT P6SM SCT250
     FM181600 10012G20KT P6SM SCT250
     FM190000 11010KT P6SM BKN060=

USA.gov is the U.S. government's official web portal to all federal, state and local government web resources and services.